Time;durP1;ratioP1;P1;durP2;ratioP2;P2;SDS_P1;SDS_P2;PMS_P1;PMS_P2;Temp;Humidity;BMP_temperature;BMP_pressure;BME280_temperature;BME280_humidity;BME280_pressure;Samples;Min_cycle;Max_cycle;Signal;HPM_P1;HPM_P2
2023/09/09 00:01:39;;;;;;;;;;;;;;;23.58;100.00;98074.94;5126396;28;19986;-78
2023/09/09 00:04:05;;;;;;;;;;;;;;;23.56;100.00;98071.75;5132944;28;19931;-78
2023/09/09 00:06:32;;;;;;;;;;;;;;;23.54;100.00;98075.97;5131336;28;19923;-78
2023/09/09 00:08:58;;;;;;;;;;;;;;;23.54;100.00;98074.03;5129613;28;19957;-78
2023/09/09 00:11:25;;;;;;;;;;;;;;;23.52;100.00;98076.31;5130707;28;19924;-78
2023/09/09 00:16:32;;;;;;;;;;;;;;;23.24;100.00;98074.63;5130072;28;19924;-78
2023/09/09 00:19:00;;;;;;;;;;;;;;;23.22;100.00;98074.94;5127508;28;19995;-78
2023/09/09 00:21:27;;;;;;;;;;;;;;;23.26;100.00;98072.34;5122996;28;19927;-78
2023/09/09 00:23:53;;;;;;;;;;;;;;;23.32;100.00;98066.31;5119961;28;20622;-78
2023/09/09 00:26:20;;;;;;;;;;;;;;;23.32;100.00;98066.31;5119075;28;19924;-78
2023/09/09 00:28:46;;;;;;;;;;;;;;;23.34;100.00;98071.41;5122309;28;19939;-78
2023/09/09 00:31:12;;;;;;;;;;;;;;;23.34;100.00;98077.66;5121329;28;19963;-78
2023/09/09 00:33:39;;;;;;;;;;;;;;;23.32;100.00;98071.78;5120546;28;20027;-78
2023/09/09 00:36:06;;;;;;;;;;;;;;;23.31;100.00;98070.16;5123216;28;19924;-79
2023/09/09 00:38:33;;;;;;;;;;;;;;;23.29;100.00;98067.00;5123706;28;19955;-79
2023/09/09 00:41:17;;;;;;;;;;;;;;;23.30;100.00;98073.25;5121326;28;19935;-79
2023/09/09 00:43:46;;;;;;;;;;;;;;;23.29;100.00;98066.19;5122584;28;19924;-79
2023/09/09 00:46:13;;;;;;;;;;;;;;;23.28;100.00;98070.84;5123271;28;19938;-79
2023/09/09 00:48:39;;;;;;;;;;;;;;;23.26;100.00;98073.13;5120989;28;19923;-80
2023/09/09 00:51:10;;;;;;;;;;;;;;;23.24;100.00;98067.22;5122148;28;19971;-79
2023/09/09 00:53:37;;;;;;;;;;;;;;;23.22;100.00;98071.41;5121535;28;19924;-80
2023/09/09 00:56:05;;;;;;;;;;;;;;;23.21;100.00;98069.84;5124613;28;19966;-80
2023/09/09 00:58:31;;;;;;;;;;;;;;;23.19;100.00;98062.00;5125530;28;20019;-79
2023/09/09 01:00:58;;;;;;;;;;;;;;;23.18;100.00;98056.91;5119284;28;19924;-80
2023/09/09 01:03:24;;;;;;;;;;;;;;;23.17;100.00;98063.47;5120993;28;19988;-79
2023/09/09 01:05:51;;;;;;;;;;;;;;;23.15;100.00;98058.38;5123495;28;19920;-79
2023/09/09 01:08:26;;;;;;;;;;;;;;;23.15;100.00;98061.09;5123095;28;19924;-79
2023/09/09 01:10:52;;;;;;;;;;;;;;;23.11;100.00;98061.00;5120218;28;19924;-79
2023/09/09 01:13:19;;;;;;;;;;;;;;;23.11;100.00;98060.19;5119862;28;19928;-79
2023/09/09 01:15:45;;;;;;;;;;;;;;;23.11;100.00;98054.75;5126147;28;19960;-79
2023/09/09 01:18:24;;;;;;;;;;;;;;;23.07;100.00;98060.09;5117976;28;20003;-78
2023/09/09 01:20:53;;;;;;;;;;;;;;;23.04;100.00;98052.59;5120514;28;19924;-78
2023/09/09 01:23:21;;;;;;;;;;;;;;;23.03;100.00;98055.66;5118645;28;19934;-78
2023/09/09 01:25:47;;;;;;;;;;;;;;;23.02;100.00;98057.59;5120385;28;19931;-78
2023/09/09 01:28:14;;;;;;;;;;;;;;;22.99;100.00;98058.25;5123633;28;19923;-78
2023/09/09 01:30:40;;;;;;;;;;;;;;;22.98;100.00;98056.69;5122642;28;19934;-78
2023/09/09 01:33:07;;;;;;;;;;;;;;;22.96;100.00;98061.66;5119531;28;19932;-77
2023/09/09 01:35:33;;;;;;;;;;;;;;;22.94;100.00;98061.22;5118383;28;19924;-78
2023/09/09 01:37:59;;;;;;;;;;;;;;;22.92;100.00;98068.13;5122828;28;19927;-78
2023/09/09 01:40:27;;;;;;;;;;;;;;;22.87;100.00;98060.97;5122323;28;19993;-78
2023/09/09 01:42:53;;;;;;;;;;;;;;;22.89;100.00;98060.63;5120701;28;20029;-78
2023/09/09 01:45:20;;;;;;;;;;;;;;;22.86;100.00;98061.31;5121756;28;20385;-78
2023/09/09 01:47:46;;;;;;;;;;;;;;;22.82;100.00;98063.91;5114505;28;19931;-78
2023/09/09 01:50:12;;;;;;;;;;;;;;;22.82;100.00;98054.94;5122038;28;19969;-78
2023/09/09 01:52:39;;;;;;;;;;;;;;;22.81;100.00;98061.56;5122556;28;19959;-78
2023/09/09 01:55:06;;;;;;;;;;;;;;;22.80;100.00;98062.69;5118336;28;19978;-78
2023/09/09 01:57:33;;;;;;;;;;;;;;;22.74;100.00;98059.38;5119693;28;19924;-78
2023/09/09 02:00:00;;;;;;;;;;;;;;;22.71;100.00;98060.06;5117922;28;19951;-78
2023/09/09 02:02:26;;;;;;;;;;;;;;;22.69;100.00;98058.78;5119255;28;19975;-78
2023/09/09 02:04:53;;;;;;;;;;;;;;;22.63;100.00;98058.19;5122012;28;19974;-78
2023/09/09 02:07:19;;;;;;;;;;;;;;;22.64;100.00;98058.97;5121918;28;19939;-79
2023/09/09 02:09:45;;;;;;;;;;;;;;;22.63;100.00;98063.63;5120336;28;19970;-79
2023/09/09 02:12:12;;;;;;;;;;;;;;;22.64;100.00;98058.97;5118796;28;19924;-79
2023/09/09 02:14:39;;;;;;;;;;;;;;;22.65;100.00;98053.25;5119812;28;19924;-79
2023/09/09 02:17:06;;;;;;;;;;;;;;;22.64;100.00;98045.38;5118173;28;19954;-79
2023/09/09 02:19:32;;;;;;;;;;;;;;;22.64;100.00;98054.34;5119681;28;19927;-79
2023/09/09 02:21:58;;;;;;;;;;;;;;;22.62;100.00;98051.16;5124592;28;19931;-79
2023/09/09 02:24:25;;;;;;;;;;;;;;;22.63;100.00;98054.66;5121770;28;19962;-79
2023/09/09 02:26:51;;;;;;;;;;;;;;;22.60;100.00;98058.84;5120269;28;19955;-79
2023/09/09 02:29:17;;;;;;;;;;;;;;;22.57;100.00;98059.53;5118821;28;19925;-79
2023/09/09 02:31:45;;;;;;;;;;;;;;;22.55;100.00;98059.88;5118917;28;19924;-79
2023/09/09 02:34:12;;;;;;;;;;;;;;;22.51;100.00;98058.97;5121156;28;19970;-79
2023/09/09 02:36:44;;;;;;;;;;;;;;;22.50;100.00;98060.09;5120271;28;19947;-79
2023/09/09 02:39:11;;;;;;;;;;;;;;;22.48;100.00;98065.09;5117419;28;19927;-79
2023/09/09 02:41:37;;;;;;;;;;;;;;;22.46;100.00;98059.19;5117854;28;19924;-79
2023/09/09 02:44:04;;;;;;;;;;;;;;;22.45;100.00;98057.59;5122601;28;19923;-79
2023/09/09 02:46:30;;;;;;;;;;;;;;;22.46;100.00;98055.66;5119198;28;19930;-79
2023/09/09 02:48:58;;;;;;;;;;;;;;;22.42;100.00;98062.91;5118390;28;19934;-79
2023/09/09 02:51:25;;;;;;;;;;;;;;;22.41;100.00;98061.31;5116934;28;19924;-79
2023/09/09 02:53:52;;;;;;;;;;;;;;;22.39;100.00;98058.13;5120830;28;19924;-79
2023/09/09 02:56:18;;;;;;;;;;;;;;;22.36;100.00;98059.59;5120905;28;19940;-79
2023/09/09 02:58:44;;;;;;;;;;;;;;;22.36;100.00;98059.59;5120556;28;19989;-79
2023/09/09 03:01:11;;;;;;;;;;;;;;;22.34;100.00;98053.72;5118941;28;19955;-79
2023/09/09 03:03:37;;;;;;;;;;;;;;;22.33;100.00;98057.56;5119991;28;19920;-79
2023/09/09 03:06:10;;;;;;;;;;;;;;;22.33;100.00;98063.00;5122622;28;20442;-79
2023/09/09 03:08:37;;;;;;;;;;;;;;;22.31;100.00;98059.03;5120840;28;20019;-79
2023/09/09 03:11:03;;;;;;;;;;;;;;;22.28;100.00;98057.75;5117569;28;19924;-79
2023/09/09 03:13:29;;;;;;;;;;;;;;;22.25;100.00;98058.41;5117391;28;20000;-79
2023/09/09 03:15:56;;;;;;;;;;;;;;;22.20;100.00;98058.63;5123636;28;19926;-79
2023/09/09 03:18:22;;;;;;;;;;;;;;;22.22;100.00;98063.75;5116639;28;20032;-79
2023/09/09 03:20:50;;;;;;;;;;;;;;;22.20;100.00;98058.63;5120099;28;19958;-79
2023/09/09 03:23:17;;;;;;;;;;;;;;;22.17;100.00;98058.50;5119830;28;19924;-79
2023/09/09 03:25:44;;;;;;;;;;;;;;;22.15;100.00;98053.41;5120265;28;19920;-79
2023/09/09 03:28:10;;;;;;;;;;;;;;;22.14;100.00;98051.81;5120633;28;19953;-79
2023/09/09 03:30:52;;;;;;;;;;;;;;;22.16;100.00;98063.16;5120331;28;19999;-78
2023/09/09 03:33:18;;;;;;;;;;;;;;;22.12;100.00;98062.25;5118495;28;19920;-78
2023/09/09 03:35:45;;;;;;;;;;;;;;;22.11;100.00;98059.84;5119516;28;19960;-79
2023/09/09 03:38:11;;;;;;;;;;;;;;;22.08;100.00;98047.72;5120752;28;20335;-79
2023/09/09 03:40:39;;;;;;;;;;;;;;;22.05;100.00;98056.53;5121004;28;19924;-79
2023/09/09 03:43:05;;;;;;;;;;;;;;;22.05;100.00;98046.47;5121725;28;19974;-79
2023/09/09 03:45:33;;;;;;;;;;;;;;;22.05;100.00;98053.81;5128036;28;19939;-79
2023/09/09 03:50:43;;;;;;;;;;;;;;;22.03;100.00;98066.97;5128370;28;19949;-79
2023/09/09 03:53:10;;;;;;;;;;;;;;;22.02;100.00;98065.38;5129710;28;19923;-79
2023/09/09 03:55:36;;;;;;;;;;;;;;;22.01;100.00;98063.78;5122675;28;19927;-79
2023/09/09 03:58:04;;;;;;;;;;;;;;;21.98;100.00;98061.72;5118598;28;19924;-79
2023/09/09 04:00:30;;;;;;;;;;;;;;;21.97;100.00;98060.16;5118656;28;19955;-79
2023/09/09 04:02:56;;;;;;;;;;;;;;;21.95;100.00;98055.03;5121294;28;19924;-79
2023/09/09 04:05:24;;;;;;;;;;;;;;;21.93;100.00;98064.66;5124202;28;19959;-79
2023/09/09 04:07:51;;;;;;;;;;;;;;;21.92;100.00;98054.91;5122894;27;19979;-79
2023/09/09 04:10:17;;;;;;;;;;;;;;;21.91;100.00;98062.25;5120159;28;19924;-79
2023/09/09 04:12:43;;;;;;;;;;;;;;;21.91;100.00;98067.69;5121226;28;19920;-79
2023/09/09 04:15:11;;;;;;;;;;;;;;;21.88;100.00;98062.13;5123719;28;20332;-79
2023/09/09 04:17:38;;;;;;;;;;;;;;;21.85;100.00;98069.00;5115417;28;19946;-79
2023/09/09 04:20:06;;;;;;;;;;;;;;;21.86;100.00;98065.16;5124609;28;19945;-79
2023/09/09 04:22:32;;;;;;;;;;;;;;;21.84;100.00;98072.06;5124644;28;19923;-79
2023/09/09 04:24:58;;;;;;;;;;;;;;;21.83;100.00;98067.75;5121547;28;19932;-79
2023/09/09 04:27:26;;;;;;;;;;;;;;;21.76;100.00;98064.75;5119801;28;19924;-79
2023/09/09 04:29:54;;;;;;;;;;;;;;;21.74;100.00;98065.09;5122220;28;19935;-79
2023/09/09 04:32:22;;;;;;;;;;;;;;;21.70;100.00;98066.06;5123714;28;19931;-79
2023/09/09 04:34:49;;;;;;;;;;;;;;;21.57;100.00;98070.63;5122696;28;19984;-79
2023/09/09 04:37:16;;;;;;;;;;;;;;;21.56;100.00;98076.41;5120873;28;19927;-79
2023/09/09 04:39:42;;;;;;;;;;;;;;;21.64;100.00;98078.28;5121029;28;19970;-80
2023/09/09 04:42:09;;;;;;;;;;;;;;;21.59;100.00;98075.75;5124225;28;19924;-79
2023/09/09 04:44:35;;;;;;;;;;;;;;;21.51;100.00;98080.91;5123107;28;19971;-79
2023/09/09 04:47:02;;;;;;;;;;;;;;;21.56;100.00;98087.28;5117856;28;19967;-79
2023/09/09 04:49:31;;;;;;;;;;;;;;;21.58;100.00;98082.31;5136562;27;19996;-80
2023/09/09 04:51:57;;;;;;;;;;;;;;;21.33;100.00;98079.44;5123481;28;19927;-79
2023/09/09 04:54:23;;;;;;;;;;;;;;;21.31;100.00;98078.97;5124271;28;19935;-79
2023/09/09 04:56:50;;;;;;;;;;;;;;;21.29;100.00;98075.78;5120658;28;19955;-81
2023/09/09 04:59:16;;;;;;;;;;;;;;;21.38;100.00;98076.53;5119202;28;20299;-79
2023/09/09 05:01:42;;;;;;;;;;;;;;;21.40;100.00;98081.63;5120245;28;19955;-78
2023/09/09 05:04:09;;;;;;;;;;;;;;;21.44;100.00;98080.66;5123385;28;19924;-78
2023/09/09 05:06:37;;;;;;;;;;;;;;;21.46;100.00;98086.53;5125510;28;19923;-79
2023/09/09 05:09:03;;;;;;;;;;;;;;;21.46;100.00;98088.47;5125353;28;19927;-79
2023/09/09 05:11:29;;;;;;;;;;;;;;;21.49;100.00;98085.88;5125603;28;19950;-79
2023/09/09 05:13:56;;;;;;;;;;;;;;;21.49;100.00;98091.31;5127292;28;19927;-79
2023/09/09 05:16:22;;;;;;;;;;;;;;;21.46;100.00;98089.25;5126874;28;19920;-79
2023/09/09 05:18:49;;;;;;;;;;;;;;;21.43;100.00;98087.22;5124541;28;19911;-79
2023/09/09 05:21:15;;;;;;;;;;;;;;;21.43;100.00;98089.13;5124294;28;19912;-78
2023/09/09 05:23:43;;;;;;;;;;;;;;;21.42;100.00;98088.31;5124709;28;19923;-78
2023/09/09 05:26:09;;;;;;;;;;;;;;;21.40;100.00;98096.03;5125734;28;19923;-78
2023/09/09 05:28:38;;;;;;;;;;;;;;;21.44;100.00;98098.88;5122525;28;19924;-79
2023/09/09 05:31:05;;;;;;;;;;;;;;;21.42;100.00;98093.75;5119945;28;19928;-79
2023/09/09 05:33:38;;;;;;;;;;;;;;;21.43;100.00;98106.22;5120921;28;19924;-80
2023/09/09 05:36:06;;;;;;;;;;;;;;;21.42;100.00;98107.34;5119968;28;20419;-79
2023/09/09 05:38:39;;;;;;;;;;;;;;;21.35;100.00;98104.34;5120651;28;20003;-79
2023/09/09 05:41:09;;;;;;;;;;;;;;;21.16;100.00;98112.13;5120056;28;19955;-80
2023/09/09 05:43:36;;;;;;;;;;;;;;;21.17;100.00;98112.94;5120035;28;19947;-80
2023/09/09 05:48:43;;;;;;;;;;;;;;;21.57;100.00;98111.41;5119053;28;20023;-79
2023/09/09 05:51:10;;;;;;;;;;;;;;;21.80;100.00;98107.25;5120562;28;19946;-78
2023/09/09 05:53:36;;;;;;;;;;;;;;;21.94;100.00;98115.19;5120153;28;19946;-78
2023/09/09 05:56:03;;;;;;;;;;;;;;;22.00;100.00;98114.66;5118717;28;19980;-79
2023/09/09 05:58:47;;;;;;;;;;;;;;;22.36;100.00;98116.75;5119649;28;19937;-78
2023/09/09 06:03:55;;;;;;;;;;;;;;;22.83;96.33;98113.75;5120272;28;19987;-80
2023/09/09 06:06:36;;;;;;;;;;;;;;;23.04;94.18;98114.44;5119481;28;19931;-79
2023/09/09 06:09:05;;;;;;;;;;;;;;;23.32;91.91;98120.81;5118151;28;19951;-79
2023/09/09 06:11:31;;;;;;;;;;;;;;;23.48;90.64;98121.75;5118743;28;19991;-79
2023/09/09 06:14:02;;;;;;;;;;;;;;;23.65;89.38;98118.78;5123642;28;19920;-79
2023/09/09 06:16:29;;;;;;;;;;;;;;;23.81;87.98;98120.78;5121615;28;19924;-80
2023/09/09 06:19:06;;;;;;;;;;;;;;;23.99;86.55;98114.72;5121231;28;19987;-79
2023/09/09 06:21:32;;;;;;;;;;;;;;;23.77;88.13;98114.47;5118778;28;19924;-80
2023/09/09 06:24:20;;;;;;;;;;;;;;;23.82;88.26;98125.13;5119409;28;19980;-80
2023/09/09 06:27:21;;;;;;;;;;;;;;;23.90;87.45;98122.25;5119911;28;19928;-79
2023/09/09 06:30:03;;;;;;;;;;;;;;;24.18;85.31;98125.06;5119013;28;19924;-79
2023/09/09 06:32:30;;;;;;;;;;;;;;;24.37;83.93;98122.47;5123060;28;19984;-79
2023/09/09 06:34:57;;;;;;;;;;;;;;;24.47;83.23;98132.09;5120783;28;19924;-79
2023/09/09 06:37:23;;;;;;;;;;;;;;;24.68;81.70;98128.03;5120301;28;19924;-79
2023/09/09 06:39:50;;;;;;;;;;;;;;;24.63;81.68;98130.22;5122090;28;19924;-79
2023/09/09 06:42:19;;;;;;;;;;;;;;;24.65;81.89;98122.47;5123417;28;19974;-79
2023/09/09 06:44:49;;;;;;;;;;;;;;;24.85;80.59;98124.19;5120132;28;19920;-79
2023/09/09 06:47:17;;;;;;;;;;;;;;;25.04;78.94;98132.50;5115747;28;19950;-79
2023/09/09 06:49:48;;;;;;;;;;;;;;;25.18;78.11;98132.06;5120899;28;19924;-80
2023/09/09 06:52:15;;;;;;;;;;;;;;;25.30;77.38;98133.91;5122891;28;19923;-78
2023/09/09 06:54:43;;;;;;;;;;;;;;;25.44;76.24;98140.50;5128001;28;20265;-79
2023/09/09 06:57:32;;;;;;;;;;;;;;;25.55;75.48;98144.31;5123075;28;19930;-79
2023/09/09 06:59:58;;;;;;;;;;;;;;;25.42;75.68;98142.81;5118802;28;19928;-79
2023/09/09 07:02:25;;;;;;;;;;;;;;;25.51;75.73;98137.97;5119904;28;19970;-79
2023/09/09 07:05:03;;;;;;;;;;;;;;;25.28;76.55;98139.75;5121752;28;19935;-79
2023/09/09 07:07:30;;;;;;;;;;;;;;;24.73;80.68;98145.31;5122814;28;19935;-80
2023/09/09 07:09:57;;;;;;;;;;;;;;;24.59;83.42;98148.44;5121680;28;19931;-79
2023/09/09 07:15:22;;;;;;;;;;;;;;;24.83;82.55;98145.59;5121003;28;19931;-80
2023/09/09 07:18:03;;;;;;;;;;;;;;;24.61;84.09;98152.41;5113978;28;19928;-79
2023/09/09 07:20:34;;;;;;;;;;;;;;;24.51;84.83;98149.38;5121829;28;19950;-78
2023/09/09 07:23:00;;;;;;;;;;;;;;;24.22;87.30;98152.44;5123020;28;19924;-79
2023/09/09 07:25:27;;;;;;;;;;;;;;;23.85;90.26;98148.97;5124155;28;19934;-80
2023/09/09 07:27:56;;;;;;;;;;;;;;;23.59;92.61;98143.88;5138859;28;19928;-79
2023/09/09 07:30:27;;;;;;;;;;;;;;;23.53;93.61;98153.44;5127539;28;20064;-79
2023/09/09 07:33:09;;;;;;;;;;;;;;;23.58;92.93;98147.78;5138470;28;19924;-79
2023/09/09 07:35:41;;;;;;;;;;;;;;;23.54;93.89;98142.19;5121585;28;19930;-80
2023/09/09 07:38:30;;;;;;;;;;;;;;;23.58;93.61;98143.09;5117787;28;19935;-79
2023/09/09 07:40:58;;;;;;;;;;;;;;;23.54;93.50;98138.69;5125790;28;19935;-79
2023/09/09 07:43:24;;;;;;;;;;;;;;;23.46;94.43;98132.19;5133394;28;19951;-79
2023/09/09 07:45:51;;;;;;;;;;;;;;;23.43;95.42;98137.53;5123893;28;19958;-78
2023/09/09 07:48:17;;;;;;;;;;;;;;;23.40;96.41;98141.72;5117498;28;19943;-79
2023/09/09 07:50:51;;;;;;;;;;;;;;;23.36;97.47;98140.81;5132522;28;19969;-79
2023/09/09 07:53:18;;;;;;;;;;;;;;;23.19;98.70;98138.28;5124505;28;19920;-79
2023/09/09 07:55:44;;;;;;;;;;;;;;;23.15;99.00;98148.28;5141341;27;19963;-79
2023/09/09 07:58:10;;;;;;;;;;;;;;;23.07;100.00;98149.19;5123689;28;19923;-79
2023/09/09 08:00:39;;;;;;;;;;;;;;;23.07;100.00;98151.91;5123881;28;19953;-79
2023/09/09 08:03:06;;;;;;;;;;;;;;;23.02;100.00;98150.22;5121736;28;19920;-79
2023/09/09 08:05:33;;;;;;;;;;;;;;;23.04;100.00;98147.13;5120246;28;19928;-79
2023/09/09 08:08:00;;;;;;;;;;;;;;;22.93;100.00;98146.00;5129074;28;19924;-79
2023/09/09 08:10:27;;;;;;;;;;;;;;;22.86;100.00;98153.91;5125234;28;19955;-79
2023/09/09 08:12:54;;;;;;;;;;;;;;;22.88;100.00;98140.75;5122335;28;19944;-78
2023/09/09 08:15:21;;;;;;;;;;;;;;;22.78;100.00;98150.13;5123953;28;20010;-78
2023/09/09 08:17:48;;;;;;;;;;;;;;;22.72;100.00;98147.97;5115366;28;19942;-78
2023/09/09 08:20:14;;;;;;;;;;;;;;;22.84;100.00;98148.00;5124699;28;19930;-78
2023/09/09 08:22:40;;;;;;;;;;;;;;;22.69;100.00;98143.97;5124011;28;19930;-78
2023/09/09 08:25:08;;;;;;;;;;;;;;;22.57;100.00;98144.72;5121183;28;19924;-78
2023/09/09 08:27:35;;;;;;;;;;;;;;;22.52;100.00;98147.66;5120018;28;19924;-78
2023/09/09 08:30:01;;;;;;;;;;;;;;;22.52;100.00;98146.84;5112792;28;19924;-78
2023/09/09 08:32:28;;;;;;;;;;;;;;;22.59;100.00;98147.13;5120780;28;19956;-78
2023/09/09 08:34:54;;;;;;;;;;;;;;;22.62;100.00;98146.44;5112398;28;19947;-78
2023/09/09 08:37:21;;;;;;;;;;;;;;;22.67;100.00;98148.19;5113589;28;19924;-78
2023/09/09 08:39:53;;;;;;;;;;;;;;;22.42;100.00;98158.94;5129992;28;19924;-79
2023/09/09 08:42:26;;;;;;;;;;;;;;;22.25;100.00;98152.88;5126030;28;19924;-79
2023/09/09 08:44:59;;;;;;;;;;;;;;;22.29;100.00;98151.84;5123570;28;19953;-78
2023/09/09 08:47:29;;;;;;;;;;;;;;;22.30;100.00;98152.66;5111370;28;19964;-79
2023/09/09 08:49:59;;;;;;;;;;;;;;;22.39;100.00;98165.06;5126544;28;19966;-79
2023/09/09 08:52:27;;;;;;;;;;;;;;;22.41;100.00;98160.06;5123471;28;19920;-79
2023/09/09 08:54:53;;;;;;;;;;;;;;;22.42;100.00;98148.06;5120650;28;19935;-79
2023/09/09 08:57:20;;;;;;;;;;;;;;;22.44;100.00;98151.25;5119646;28;19932;-79
2023/09/09 08:59:48;;;;;;;;;;;;;;;22.57;100.00;98155.59;5122060;28;19946;-79
2023/09/09 09:02:15;;;;;;;;;;;;;;;22.47;100.00;98161.47;5122765;28;19927;-78
2023/09/09 09:04:41;;;;;;;;;;;;;;;22.46;100.00;98156.38;5123355;27;19969;-78
2023/09/09 09:07:08;;;;;;;;;;;;;;;22.48;100.00;98149.44;5119535;28;19924;-79
2023/09/09 09:09:35;;;;;;;;;;;;;;;22.52;100.00;98155.03;5118933;28;19925;-79
2023/09/09 09:12:02;;;;;;;;;;;;;;;22.52;100.00;98152.31;5119032;28;19924;-79
2023/09/09 09:14:29;;;;;;;;;;;;;;;22.54;100.00;98152.75;5122722;28;19924;-80
2023/09/09 09:16:57;;;;;;;;;;;;;;;22.58;100.00;98140.06;5119326;28;19950;-79
2023/09/09 09:19:27;;;;;;;;;;;;;;;22.67;100.00;98157.16;5136788;27;19928;-79
2023/09/09 09:21:53;;;;;;;;;;;;;;;22.98;100.00;98156.66;5121296;28;19930;-79
2023/09/09 09:24:21;;;;;;;;;;;;;;;23.06;100.00;98148.38;5123414;28;19930;-79
2023/09/09 09:26:48;;;;;;;;;;;;;;;23.12;100.00;98148.94;5122074;28;19924;-79
2023/09/09 09:29:14;;;;;;;;;;;;;;;23.18;100.00;98150.31;5119023;28;19958;-79
2023/09/09 09:31:41;;;;;;;;;;;;;;;23.44;100.00;98139.94;5120648;28;19920;-80
2023/09/09 09:34:09;;;;;;;;;;;;;;;23.64;100.00;98144.44;5124123;28;19945;-79
2023/09/09 09:36:36;;;;;;;;;;;;;;;23.44;100.00;98156.28;5124147;28;19958;-79
2023/09/09 09:39:07;;;;;;;;;;;;;;;23.25;100.00;98147.84;5119255;28;19955;-80
2023/09/09 09:41:34;;;;;;;;;;;;;;;23.95;100.00;98141.09;5120714;28;20030;-79
2023/09/09 09:44:17;;;;;;;;;;;;;;;23.98;100.00;98136.91;5125332;28;19935;-80
2023/09/09 09:46:58;;;;;;;;;;;;;;;24.25;100.00;98138.09;5120464;28;19924;-80
2023/09/09 09:49:32;;;;;;;;;;;;;;;24.65;100.00;98130.66;5122335;28;19957;-80
2023/09/09 09:52:00;;;;;;;;;;;;;;;24.24;100.00;98134.56;5126265;28;19927;-79
2023/09/09 09:54:42;;;;;;;;;;;;;;;24.00;100.00;98140.88;5127082;28;19935;-80
2023/09/09 09:57:09;;;;;;;;;;;;;;;24.47;100.00;98132.91;5113206;28;19987;-79
2023/09/09 09:59:38;;;;;;;;;;;;;;;24.30;100.00;98138.66;5120290;28;19955;-79
2023/09/09 10:02:04;;;;;;;;;;;;;;;24.10;100.00;98136.88;5119904;28;19912;-79
2023/09/09 10:04:34;;;;;;;;;;;;;;;24.11;100.00;98131.09;5119903;28;19924;-79
2023/09/09 10:07:16;;;;;;;;;;;;;;;24.08;100.00;98136.41;5124050;28;19931;-79
2023/09/09 10:09:44;;;;;;;;;;;;;;;24.07;100.00;98129.38;5124561;28;19945;-79
2023/09/09 10:12:12;;;;;;;;;;;;;;;24.26;100.00;98132.31;5122402;28;19931;-79
2023/09/09 10:17:22;;;;;;;;;;;;;;;24.39;100.00;98133.84;5111677;28;19924;-78
2023/09/09 10:19:53;;;;;;;;;;;;;;;24.66;100.00;98126.78;5103465;28;19924;-79
2023/09/09 10:22:22;;;;;;;;;;;;;;;25.28;99.57;98117.06;5103693;28;19912;-79
2023/09/09 10:24:50;;;;;;;;;;;;;;;25.62;96.76;98121.81;5093754;28;19989;-78
2023/09/09 10:27:18;;;;;;;;;;;;;;;25.29;98.37;98124.91;5095097;28;19936;-78
2023/09/09 10:30:07;;;;;;;;;;;;;;;25.21;100.00;98117.69;5105858;28;19946;-79
2023/09/09 10:32:38;;;;;;;;;;;;;;;25.53;97.38;98116.53;5108360;28;19983;-79
2023/09/09 10:35:06;;;;;;;;;;;;;;;25.63;96.94;98118.72;5103989;28;19931;-78
2023/09/09 10:37:33;;;;;;;;;;;;;;;25.82;94.93;98120.69;5101660;28;19927;-78
2023/09/09 10:40:00;;;;;;;;;;;;;;;25.77;95.73;98112.78;5103385;28;19931;-78
2023/09/09 10:42:28;;;;;;;;;;;;;;;25.96;94.82;98104.59;5106874;28;20019;-78
2023/09/09 10:44:54;;;;;;;;;;;;;;;25.98;95.23;98098.75;5103512;28;19983;-78
2023/09/09 10:47:21;;;;;;;;;;;;;;;25.88;95.97;98102.06;5099465;28;19924;-78
2023/09/09 10:49:47;;;;;;;;;;;;;;;26.45;92.25;98096.63;5102649;28;19924;-78
2023/09/09 10:52:45;;;;;;;;;;;;;;;26.10;93.91;98099.41;5105699;28;19920;-79
2023/09/09 10:55:12;;;;;;;;;;;;;;;26.21;93.30;98094.19;5099296;28;19924;-78
2023/09/09 10:57:38;;;;;;;;;;;;;;;26.47;91.66;98088.03;5096933;28;19924;-78
2023/09/09 11:00:06;;;;;;;;;;;;;;;26.37;92.53;98092.16;5097349;28;19960;-78
2023/09/09 11:02:43;;;;;;;;;;;;;;;26.79;89.53;98086.69;5097445;28;20019;-79
2023/09/09 11:05:11;;;;;;;;;;;;;;;26.83;89.34;98091.09;5104218;28;19930;-79
2023/09/09 11:07:40;;;;;;;;;;;;;;;26.42;90.99;98091.09;5098624;28;19924;-79
2023/09/09 11:10:08;;;;;;;;;;;;;;;26.15;94.03;98088.19;5109661;28;19924;-79
2023/09/09 11:12:34;;;;;;;;;;;;;;;26.18;94.54;98089.44;5101034;28;19924;-79
2023/09/09 11:15:06;;;;;;;;;;;;;;;26.52;92.05;98083.03;5103193;28;19924;-79
2023/09/09 11:17:33;;;;;;;;;;;;;;;26.30;94.06;98095.53;5097074;28;19943;-80
2023/09/09 11:20:00;;;;;;;;;;;;;;;26.35;93.75;98096.41;5104973;28;19924;-79
2023/09/09 11:22:28;;;;;;;;;;;;;;;26.32;92.34;98081.50;5106523;28;19931;-79
2023/09/09 11:24:57;;;;;;;;;;;;;;;26.14;93.71;98085.81;5103742;28;19967;-79
2023/09/09 11:27:24;;;;;;;;;;;;;;;26.36;93.05;98076.91;5102579;28;19920;-80
2023/09/09 11:29:51;;;;;;;;;;;;;;;26.39;93.18;98083.59;5103786;28;19995;-80
2023/09/09 11:32:24;;;;;;;;;;;;;;;26.90;89.37;98081.41;5105897;28;19924;-80
2023/09/09 11:35:04;;;;;;;;;;;;;;;26.67;89.84;98079.44;5103906;28;19924;-80
2023/09/09 11:37:30;;;;;;;;;;;;;;;26.60;91.78;98076.56;5102402;28;19966;-80
2023/09/09 11:39:59;;;;;;;;;;;;;;;26.98;90.10;98081.19;5105544;28;20336;-79
2023/09/09 11:42:26;;;;;;;;;;;;;;;27.12;88.46;98075.91;5113225;28;19952;-80
2023/09/09 11:44:52;;;;;;;;;;;;;;;27.17;87.93;98070.13;5101446;28;19935;-78
2023/09/09 11:47:19;;;;;;;;;;;;;;;27.11;89.80;98070.81;5097278;28;19943;-79
2023/09/09 11:49:48;;;;;;;;;;;;;;;26.90;90.46;98070.44;5101725;28;19930;-80
2023/09/09 11:52:17;;;;;;;;;;;;;;;26.99;90.79;98070.97;5105664;28;19931;-79
2023/09/09 11:54:44;;;;;;;;;;;;;;;27.13;88.87;98073.97;5112016;28;19930;-79
2023/09/09 11:57:12;;;;;;;;;;;;;;;27.20;89.22;98068.59;5101038;28;19928;-80
2023/09/09 11:59:45;;;;;;;;;;;;;;;27.24;87.81;98070.22;5101387;28;19931;-79
2023/09/09 12:02:19;;;;;;;;;;;;;;;27.31;87.13;98072.28;5105256;28;19927;-80
2023/09/09 12:04:55;;;;;;;;;;;;;;;27.35;81.78;98064.91;5102732;28;19930;-79
2023/09/09 12:07:22;;;;;;;;;;;;;;;27.34;84.90;98066.06;5099844;28;19920;-79
2023/09/09 12:09:49;;;;;;;;;;;;;;;27.41;82.98;98057.97;5103276;28;19925;-79
2023/09/09 12:12:17;;;;;;;;;;;;;;;27.44;81.97;98060.00;5104698;28;20062;-81
2023/09/09 12:14:43;;;;;;;;;;;;;;;27.41;82.88;98055.22;5103355;28;19928;-80
2023/09/09 12:17:10;;;;;;;;;;;;;;;27.18;80.50;98068.16;5098071;28;19924;-79
2023/09/09 12:19:36;;;;;;;;;;;;;;;27.01;84.03;98058.50;5100995;28;19976;-79
2023/09/09 12:22:03;;;;;;;;;;;;;;;27.08;82.90;98057.84;5103259;28;19972;-79
2023/09/09 12:24:39;;;;;;;;;;;;;;;27.15;83.39;98052.44;5104773;28;19928;-79
2023/09/09 12:27:06;;;;;;;;;;;;;;;27.11;82.47;98065.34;5105825;28;19978;-80
2023/09/09 12:29:44;;;;;;;;;;;;;;;27.18;79.42;98058.00;5105395;28;19924;-79
2023/09/09 12:32:11;;;;;;;;;;;;;;;27.06;82.25;98060.94;5109276;28;19947;-79
2023/09/09 12:34:37;;;;;;;;;;;;;;;27.14;81.63;98053.63;5102141;28;19914;-79
2023/09/09 12:37:04;;;;;;;;;;;;;;;27.14;83.21;98059.13;5104354;28;19928;-79
2023/09/09 12:39:31;;;;;;;;;;;;;;;27.22;78.39;98063.53;5104515;28;19930;-79
2023/09/09 12:42:01;;;;;;;;;;;;;;;27.22;77.80;98058.06;5110302;28;19950;-80
2023/09/09 12:44:28;;;;;;;;;;;;;;;27.22;80.14;98055.31;5102154;28;19921;-79
2023/09/09 12:46:56;;;;;;;;;;;;;;;27.15;78.58;98053.25;5101427;28;19928;-80
2023/09/09 12:49:23;;;;;;;;;;;;;;;27.19;79.99;98056.06;5101130;28;19931;-79
2023/09/09 12:51:52;;;;;;;;;;;;;;;27.18;80.78;98066.22;5101771;28;19935;-79
2023/09/09 12:54:19;;;;;;;;;;;;;;;27.28;80.49;98051.09;5104082;28;19923;-80
2023/09/09 12:56:45;;;;;;;;;;;;;;;27.24;81.14;98070.22;5102777;28;19970;-79
2023/09/09 12:59:11;;;;;;;;;;;;;;;27.18;83.20;98054.47;5099248;28;19952;-79
2023/09/09 13:01:38;;;;;;;;;;;;;;;27.38;79.43;98061.44;5100502;28;19947;-79
2023/09/09 13:04:06;;;;;;;;;;;;;;;27.47;74.52;98053.75;5102798;28;19963;-79